Brighton, MI (48114)

3:45 AM EST on December 10, 2016 (GMT -0500)
Hunters Ridge | | Change Station

Elev 988 ft 42.58 °N, 83.77 °W | Updated 34 seconds ago

Overcast
Overcast
22.1 °F
Feels Like 15 °F
N
5.8
Wind Variable Wind from West

Today
High -- | Low -- °F
--% Chance of Precip.
Yesterday
High -- | Low -- °F
Precip. -- in
Pressure 30.40 in
Visibility 10.0 miles
Clouds Scattered Clouds 1300 ft
Mostly Cloudy 2000 ft
Overcast 5000 ft
Windchill 15 °F
Dew Point 18 °F
Humidity 85%
Rainfall 0.00 in
Snow Depth Not available.
7:54 AM 5:01 PM
Waxing Gibbous, 82% visible
METAR KOZW 100834Z AUTO 26008KT 10SM SCT013 BKN020 OVC050 M05/M07 A3040 RMK AO2 T10511071
Pressure 30.40 in
Visibility 10.0 miles
Clouds Scattered Clouds 1300 ft
Mostly Cloudy 2000 ft
Overcast 5000 ft
Windchill 15 °F
Dew Point 18 °F
Humidity 85%
Rainfall 0.00 in
Snow Depth Not available.
7:54 AM 5:01 PM
Waxing Gibbous, 82% visible
METAR KOZW 100834Z AUTO 26008KT 10SM SCT013 BKN020 OVC050 M05/M07 A3040 RMK AO2 T10511071

10-Day Weather Forecast

Almanac

Astronomy

Dec. 10, 2016 Rise Set
Actual Time
Civil Twilight
Nautical Twilight
Astronomical Twilight
Moon
Length of Visible Light
Length of Day
Tomorrow will be .
, % of the Moon is Illuminated

Today's Extremes

State Highs State Lows

Community

WunderPhotos

Upload Photos

1,956,538 photos uploaded!

WunderBlog® & News

Nearby

Air Quality

  Air Quality AQ Index Pollutant
Not available.

Snow Depth

Station Depth Elevation

Earthquake Activity

City Distance Mag. Time & Date
Minimum magnitude displayed is 2.5.

Coastal Water Temperatures

Place Temperature

Stations

Nearby Weather Stations

Station Location Temp. Windchill Dew Point Humidity Wind Precip. Elev Updated Type
                   

Watches & Warnings

There are currently no watches in effect.